createdAt,value
2022-10-30T00:01:49.454Z,5.42
2022-10-30T00:04:16.850Z,5.46
2022-10-30T00:06:44.045Z,5.43
2022-10-30T00:09:11.281Z,5.43
2022-10-30T00:11:38.279Z,5.37
2022-10-30T00:14:05.536Z,5.41
2022-10-30T00:16:32.546Z,5.40
2022-10-30T00:18:59.854Z,5.38
2022-10-30T00:21:27.279Z,5.35
2022-10-30T00:23:55.092Z,5.35
2022-10-30T00:26:23.863Z,5.30
2022-10-30T00:28:52.783Z,5.26
2022-10-30T00:31:20.545Z,5.23
2022-10-30T00:33:52.854Z,5.16
2022-10-30T00:36:20.675Z,5.15
2022-10-30T00:38:48.058Z,5.19
2022-10-30T00:41:17.568Z,5.15
2022-10-30T00:43:45.307Z,5.12
2022-10-30T00:46:18.052Z,5.03
2022-10-30T00:48:52.965Z,4.98
2022-10-30T00:51:21.050Z,4.93
2022-10-30T00:53:49.271Z,4.93
2022-10-30T00:56:20.627Z,4.96
2022-10-30T00:58:54.779Z,4.94
2022-10-30T01:01:26.312Z,4.98
2022-10-30T01:03:57.398Z,4.91
2022-10-30T01:06:25.325Z,4.96
2022-10-30T01:08:58.790Z,4.96
2022-10-30T01:11:27.288Z,4.95
2022-10-30T01:13:57.447Z,4.95
2022-10-30T01:16:30.206Z,4.93
2022-10-30T01:19:19.200Z,4.86
2022-10-30T01:22:15.204Z,4.83
2022-10-30T01:25:21.890Z,4.82
2022-10-30T01:28:23.479Z,4.77
2022-10-30T01:31:19.627Z,4.75
2022-10-30T01:33:55.664Z,4.74
2022-10-30T01:36:32.425Z,4.70
2022-10-30T01:39:23.782Z,4.70
2022-10-30T01:41:50.954Z,4.69
2022-10-30T01:44:23.865Z,4.70
2022-10-30T01:47:21.845Z,4.69
2022-10-30T01:49:55.039Z,4.66
2022-10-30T01:52:56.126Z,4.65
2022-10-30T01:55:53.725Z,4.60
2022-10-30T01:58:26.752Z,4.54
2022-10-30T02:00:58.743Z,4.54
2022-10-30T02:03:27.105Z,4.56
2022-10-30T02:05:55.026Z,4.51
2022-10-30T02:08:22.561Z,4.56
2022-10-30T02:10:56.311Z,4.54
2022-10-30T02:13:23.841Z,4.56
2022-10-30T02:15:51.395Z,4.54
2022-10-30T02:18:18.379Z,4.58
2022-10-30T02:20:45.287Z,4.54
2022-10-30T02:23:19.163Z,4.49
2022-10-30T02:25:46.831Z,4.51
2022-10-30T02:28:14.069Z,4.49
2022-10-30T02:30:44.425Z,4.51
2022-10-30T02:33:11.787Z,4.47
2022-10-30T02:35:38.965Z,4.45
2022-10-30T02:38:06.330Z,4.40
2022-10-30T02:40:33.332Z,4.41
2022-10-30T02:43:00.272Z,4.40
2022-10-30T02:45:27.723Z,4.40
2022-10-30T02:47:54.923Z,4.41
2022-10-30T02:50:22.109Z,4.40
2022-10-30T02:52:49.189Z,4.34
2022-10-30T02:55:16.260Z,4.38
2022-10-30T02:57:43.308Z,4.36
2022-10-30T03:00:11.231Z,4.37
2022-10-30T03:02:38.363Z,4.34
2022-10-30T03:05:06.048Z,4.31
2022-10-30T03:07:33.342Z,4.31
2022-10-30T03:10:00.451Z,4.28
2022-10-30T03:12:27.407Z,4.27
2022-10-30T03:14:54.638Z,4.30
2022-10-30T03:17:21.567Z,4.24
2022-10-30T03:19:48.557Z,4.26
2022-10-30T03:22:15.512Z,4.22
2022-10-30T03:24:42.590Z,4.23
2022-10-30T03:27:09.585Z,4.26
2022-10-30T03:29:36.836Z,4.27
2022-10-30T03:32:03.985Z,4.26
2022-10-30T03:34:31.405Z,4.20
2022-10-30T03:36:58.399Z,4.24
2022-10-30T03:39:25.482Z,4.20
2022-10-30T03:41:52.634Z,4.16
2022-10-30T03:44:19.644Z,4.18
2022-10-30T03:46:46.765Z,4.21
2022-10-30T03:49:13.764Z,4.22
2022-10-30T03:51:41.008Z,4.19
2022-10-30T03:54:07.989Z,4.18
2022-10-30T03:56:35.077Z,4.18
2022-10-30T03:59:02.153Z,4.14
2022-10-30T04:01:29.519Z,4.16
2022-10-30T04:03:56.554Z,4.11
2022-10-30T04:06:23.542Z,4.15
2022-10-30T04:08:50.528Z,4.03
2022-10-30T04:11:17.811Z,4.08
2022-10-30T04:13:44.918Z,4.08
2022-10-30T04:16:12.090Z,4.10
2022-10-30T04:18:39.407Z,4.13
2022-10-30T04:21:06.557Z,4.07
2022-10-30T04:23:33.524Z,4.08
2022-10-30T04:26:02.352Z,4.02
2022-10-30T04:28:29.278Z,4.01
2022-10-30T04:30:57.011Z,4.04
2022-10-30T04:33:24.048Z,4.07
2022-10-30T04:35:51.019Z,4.07
2022-10-30T04:38:19.811Z,4.03
2022-10-30T04:40:46.858Z,4.01
2022-10-30T04:43:14.854Z,3.97
2022-10-30T04:45:42.126Z,3.98
2022-10-30T04:48:16.206Z,3.95
2022-10-30T04:50:44.084Z,3.95
2022-10-30T04:53:18.763Z,3.95
2022-10-30T04:55:46.433Z,3.96
2022-10-30T04:58:14.081Z,3.97
2022-10-30T05:00:43.566Z,3.94
2022-10-30T05:03:19.854Z,3.96
2022-10-30T05:05:59.364Z,3.99
2022-10-30T05:08:26.804Z,4.00
2022-10-30T05:10:54.487Z,4.05
2022-10-30T05:13:21.515Z,4.06
2022-10-30T05:15:48.740Z,4.10
2022-10-30T05:18:16.119Z,4.13
2022-10-30T05:20:43.109Z,4.19
2022-10-30T05:23:10.525Z,4.21
2022-10-30T05:25:38.026Z,4.19
2022-10-30T05:28:07.073Z,4.22
2022-10-30T05:30:35.435Z,4.26
2022-10-30T05:33:13.835Z,4.28
2022-10-30T05:35:41.380Z,4.26
2022-10-30T05:38:08.544Z,4.30
2022-10-30T05:40:36.177Z,4.34
2022-10-30T05:43:03.278Z,4.37
2022-10-30T05:45:30.970Z,4.45
2022-10-30T05:48:00.722Z,4.47
2022-10-30T05:50:29.766Z,4.53
2022-10-30T05:53:05.999Z,4.60
2022-10-30T05:55:34.147Z,4.58
2022-10-30T05:58:03.991Z,4.70
2022-10-30T06:00:34.066Z,4.79
2022-10-30T06:03:05.786Z,4.95
2022-10-30T06:05:36.565Z,5.08
2022-10-30T06:08:05.104Z,5.26
2022-10-30T06:10:32.822Z,5.37
2022-10-30T06:13:03.522Z,5.45
2022-10-30T06:15:31.505Z,5.48
2022-10-30T06:17:59.595Z,5.61
2022-10-30T06:20:30.450Z,5.66
2022-10-30T06:23:05.623Z,5.75
2022-10-30T06:25:41.113Z,5.89
2022-10-30T06:28:13.997Z,6.06
2022-10-30T06:30:41.849Z,6.29
2022-10-30T06:33:10.369Z,6.56
2022-10-30T06:35:40.106Z,6.74
2022-10-30T06:38:08.982Z,6.97
2022-10-30T06:40:35.989Z,7.22
2022-10-30T06:43:03.252Z,7.47
2022-10-30T06:45:30.345Z,7.74
2022-10-30T06:47:58.674Z,8.04
2022-10-30T06:50:25.976Z,8.43
2022-10-30T06:52:55.098Z,8.69
2022-10-30T06:55:22.069Z,9.01
2022-10-30T06:57:58.581Z,9.34
2022-10-30T07:00:28.093Z,9.67
2022-10-30T07:02:57.612Z,9.97
2022-10-30T07:05:24.950Z,10.21
2022-10-30T07:07:52.108Z,10.51
2022-10-30T07:10:19.126Z,10.77
2022-10-30T07:12:53.057Z,11.02
2022-10-30T07:15:20.718Z,11.23
2022-10-30T07:17:58.939Z,11.48
2022-10-30T07:20:28.353Z,11.75
2022-10-30T07:22:55.739Z,11.99
2022-10-30T07:25:23.069Z,12.17
2022-10-30T07:27:52.591Z,12.39
2022-10-30T07:33:01.629Z,12.77
2022-10-30T07:35:30.066Z,12.96
2022-10-30T07:38:02.293Z,13.11
2022-10-30T07:40:29.390Z,13.29
2022-10-30T07:42:58.331Z,13.46
2022-10-30T07:45:26.091Z,13.59
2022-10-30T07:47:53.007Z,13.80
2022-10-30T07:50:20.730Z,13.95
2022-10-30T07:52:48.195Z,14.14
2022-10-30T07:55:15.336Z,14.32
2022-10-30T07:57:43.308Z,14.54
2022-10-30T08:00:13.593Z,14.67
2022-10-30T08:02:41.382Z,14.89
2022-10-30T08:05:09.273Z,15.11
2022-10-30T08:07:37.707Z,15.35
2022-10-30T08:10:05.801Z,15.57
2022-10-30T08:12:34.495Z,15.80
2022-10-30T08:15:01.812Z,15.98
2022-10-30T08:17:29.869Z,16.14
2022-10-30T08:19:57.473Z,16.30
2022-10-30T08:22:25.604Z,16.45
2022-10-30T08:24:52.656Z,16.58
2022-10-30T08:27:20.074Z,16.76
2022-10-30T08:29:48.202Z,16.92
2022-10-30T08:32:15.609Z,17.06
2022-10-30T08:34:42.823Z,17.26
2022-10-30T08:37:09.766Z,17.46
2022-10-30T08:39:37.069Z,17.61
2022-10-30T08:42:04.185Z,17.82
2022-10-30T08:44:31.233Z,17.96
2022-10-30T08:46:58.200Z,18.14
2022-10-30T08:49:25.504Z,18.32
2022-10-30T08:51:52.695Z,18.45
2022-10-30T08:54:19.875Z,18.62
2022-10-30T08:56:47.231Z,18.71
2022-10-30T08:59:17.186Z,18.86
2022-10-30T09:01:47.880Z,18.99
2022-10-30T09:04:15.008Z,19.15
2022-10-30T09:06:41.934Z,19.27
2022-10-30T09:09:09.160Z,19.32
2022-10-30T09:11:36.093Z,19.46
2022-10-30T09:14:05.031Z,19.60
2022-10-30T09:16:32.211Z,19.73
2022-10-30T09:18:59.311Z,19.80
2022-10-30T09:21:32.356Z,19.89
2022-10-30T09:23:59.843Z,20.05
2022-10-30T09:26:26.763Z,20.18
2022-10-30T09:28:54.061Z,20.33
2022-10-30T09:31:21.104Z,20.41
2022-10-30T09:33:48.161Z,20.52
2022-10-30T09:36:18.064Z,20.58
2022-10-30T09:38:48.358Z,20.62
2022-10-30T09:41:33.584Z,20.76
2022-10-30T09:44:36.437Z,20.82
2022-10-30T09:47:09.845Z,20.93
2022-10-30T09:50:12.413Z,21.00
2022-10-30T09:52:42.289Z,21.09
2022-10-30T09:55:33.395Z,21.10
2022-10-30T09:58:41.852Z,21.20
2022-10-30T10:01:43.932Z,21.34
2022-10-30T10:04:26.954Z,21.50
2022-10-30T10:07:04.928Z,21.60
2022-10-30T10:09:35.428Z,21.74
2022-10-30T10:12:18.579Z,21.83
2022-10-30T10:14:48.499Z,21.97
2022-10-30T10:17:24.622Z,22.00
2022-10-30T10:20:02.966Z,22.03
2022-10-30T10:22:41.653Z,22.04
2022-10-30T10:25:14.748Z,22.05
2022-10-30T10:28:03.169Z,22.09
2022-10-30T10:31:21.880Z,22.02
2022-10-30T10:34:06.905Z,22.08
2022-10-30T10:36:50.548Z,22.12
2022-10-30T10:39:31.815Z,22.19
2022-10-30T10:42:14.172Z,22.22
2022-10-30T10:44:54.577Z,22.29
2022-10-30T10:47:32.570Z,22.33
2022-10-30T10:50:30.062Z,22.38
2022-10-30T10:53:02.147Z,22.43
2022-10-30T10:55:33.951Z,22.50
2022-10-30T10:58:10.488Z,22.51
2022-10-30T11:00:38.547Z,22.59
2022-10-30T11:03:20.651Z,22.60
2022-10-30T11:05:56.911Z,22.70
2022-10-30T11:08:28.598Z,22.77
2022-10-30T11:11:01.396Z,22.88
2022-10-30T11:13:40.825Z,22.96
2022-10-30T11:16:36.000Z,23.04
2022-10-30T11:19:08.387Z,23.12
2022-10-30T11:21:42.477Z,23.16
2022-10-30T11:24:30.601Z,23.13
2022-10-30T11:27:19.367Z,23.15
2022-10-30T11:30:06.448Z,23.17
2022-10-30T11:32:35.188Z,23.20
2022-10-30T11:35:08.465Z,23.20
2022-10-30T11:37:37.605Z,23.24
2022-10-30T11:40:16.948Z,23.37
2022-10-30T11:42:54.134Z,23.41
2022-10-30T11:45:31.439Z,23.52
2022-10-30T11:48:02.468Z,23.51
2022-10-30T11:50:32.673Z,23.49
2022-10-30T11:53:03.667Z,23.49
2022-10-30T11:55:36.559Z,23.50
2022-10-30T11:58:06.538Z,23.46
2022-10-30T12:00:36.527Z,23.51
2022-10-30T12:03:03.866Z,23.65
2022-10-30T12:05:35.226Z,23.68
2022-10-30T12:08:08.354Z,23.69
2022-10-30T12:10:48.000Z,23.58
2022-10-30T12:13:20.192Z,23.62
2022-10-30T12:15:51.545Z,23.63
2022-10-30T12:20:58.305Z,23.67
2022-10-30T12:23:27.702Z,23.68
2022-10-30T12:26:01.001Z,23.73
2022-10-30T12:28:32.880Z,23.60
2022-10-30T12:31:09.307Z,23.59
2022-10-30T12:34:07.283Z,23.60
2022-10-30T12:36:41.516Z,23.60
2022-10-30T12:39:15.213Z,23.56
2022-10-30T12:42:01.699Z,23.51
2022-10-30T12:44:44.050Z,23.46
2022-10-30T12:47:19.672Z,23.44
2022-10-30T12:49:48.764Z,23.39
2022-10-30T12:52:25.489Z,23.35
2022-10-30T12:55:05.132Z,23.31
2022-10-30T12:57:38.917Z,23.25
2022-10-30T13:00:15.887Z,23.27
2022-10-30T13:03:05.672Z,23.20
2022-10-30T13:06:01.605Z,23.15
2022-10-30T13:08:45.983Z,23.12
2022-10-30T13:11:37.449Z,23.11
2022-10-30T13:14:12.726Z,23.12
2022-10-30T13:16:40.861Z,23.04
2022-10-30T13:19:12.174Z,22.99
2022-10-30T13:21:58.045Z,22.95
2022-10-30T13:24:42.883Z,22.94
2022-10-30T13:27:41.544Z,22.90
2022-10-30T13:30:15.151Z,22.85
2022-10-30T13:33:03.178Z,22.80
2022-10-30T13:35:42.942Z,22.78
2022-10-30T13:38:30.566Z,22.76
2022-10-30T13:41:32.995Z,22.69
2022-10-30T13:44:03.182Z,22.68
2022-10-30T13:46:53.824Z,22.64
2022-10-30T13:49:33.781Z,22.52
2022-10-30T13:52:03.892Z,22.45
2022-10-30T13:54:56.518Z,22.33
2022-10-30T13:57:41.550Z,22.23
2022-10-30T14:00:29.537Z,22.21
2022-10-30T14:03:16.469Z,22.11
2022-10-30T14:05:54.376Z,22.04
2022-10-30T14:11:00.883Z,21.82
2022-10-30T14:13:58.438Z,21.76
2022-10-30T14:16:42.086Z,21.59
2022-10-30T14:19:14.900Z,21.61
2022-10-30T14:21:42.959Z,21.45
2022-10-30T14:24:21.076Z,21.31
2022-10-30T14:26:53.093Z,21.06
2022-10-30T14:29:32.527Z,20.86
2022-10-30T14:32:23.023Z,20.64
2022-10-30T14:34:53.560Z,20.37
2022-10-30T14:37:23.840Z,20.25
2022-10-30T14:39:52.191Z,20.07
2022-10-30T14:42:31.054Z,19.84
2022-10-30T14:45:03.993Z,19.60
2022-10-30T14:47:53.079Z,19.34
2022-10-30T14:50:41.499Z,19.07
2022-10-30T14:53:30.727Z,18.84
2022-10-30T14:56:27.008Z,18.56
2022-10-30T14:59:36.184Z,18.25
2022-10-30T15:02:23.121Z,17.97
2022-10-30T15:04:50.202Z,17.73
2022-10-30T15:07:29.128Z,17.50
2022-10-30T15:10:18.461Z,17.34
2022-10-30T15:13:46.176Z,17.14
2022-10-30T15:16:20.202Z,16.88
2022-10-30T15:19:45.901Z,16.68
2022-10-30T15:22:07.480Z,16.46
2022-10-30T15:24:35.977Z,16.28
2022-10-30T15:27:04.532Z,16.11
2022-10-30T15:29:36.974Z,15.99
2022-10-30T15:32:27.542Z,15.79
2022-10-30T15:35:00.230Z,15.64
2022-10-30T15:37:35.275Z,15.50
2022-10-30T15:47:14.949Z,14.96
2022-10-30T15:49:52.544Z,14.83
2022-10-30T15:52:29.018Z,14.70
2022-10-30T15:55:11.028Z,14.59
2022-10-30T15:58:02.202Z,14.48
2022-10-30T16:00:43.058Z,14.45
2022-10-30T16:03:17.256Z,14.37
2022-10-30T16:05:44.380Z,14.21
2022-10-30T16:08:22.648Z,14.07
2022-10-30T16:10:54.032Z,13.95
2022-10-30T16:13:25.703Z,13.88
2022-10-30T16:15:52.970Z,13.78
2022-10-30T16:18:27.094Z,13.68
2022-10-30T16:20:58.634Z,13.62
2022-10-30T16:23:25.829Z,13.47
2022-10-30T16:25:59.539Z,13.49
2022-10-30T16:28:30.898Z,13.39
2022-10-30T16:31:02.195Z,13.24
2022-10-30T16:33:31.450Z,13.23
2022-10-30T16:36:00.243Z,13.17
2022-10-30T16:38:32.167Z,13.08
2022-10-30T16:40:59.762Z,13.05
2022-10-30T16:43:32.043Z,12.98
2022-10-30T16:46:17.491Z,12.89
2022-10-30T16:48:48.861Z,12.73
2022-10-30T16:51:17.992Z,12.68
2022-10-30T16:53:52.645Z,12.61
2022-10-30T16:56:32.283Z,12.50
2022-10-30T16:59:23.626Z,12.43
2022-10-30T17:01:58.232Z,12.37
2022-10-30T17:04:26.150Z,12.29
2022-10-30T17:07:03.107Z,12.29
2022-10-30T17:09:34.614Z,12.20
2022-10-30T17:12:21.801Z,12.18
2022-10-30T17:15:07.157Z,12.15
2022-10-30T17:17:39.572Z,12.13
2022-10-30T17:20:25.008Z,12.13
2022-10-30T17:23:17.223Z,12.00
2022-10-30T17:25:46.953Z,11.89
2022-10-30T17:28:40.310Z,11.89
2022-10-30T17:31:21.363Z,11.89
2022-10-30T17:34:15.159Z,11.84
2022-10-30T17:36:43.168Z,11.81
2022-10-30T17:39:11.577Z,11.66
2022-10-30T17:41:39.834Z,11.55
2022-10-30T17:44:07.639Z,11.63
2022-10-30T17:46:34.716Z,11.51
2022-10-30T17:49:02.417Z,11.43
2022-10-30T17:51:29.809Z,11.44
2022-10-30T17:53:56.878Z,11.30
2022-10-30T17:56:28.345Z,11.26
2022-10-30T17:58:55.584Z,11.24
2022-10-30T18:01:25.868Z,11.27
2022-10-30T18:03:55.843Z,11.18
2022-10-30T18:06:25.961Z,11.10
2022-10-30T18:08:53.885Z,11.01
2022-10-30T18:11:21.848Z,10.97
2022-10-30T18:13:50.734Z,10.90
2022-10-30T18:16:19.420Z,10.90
2022-10-30T18:18:46.775Z,10.93
2022-10-30T18:21:15.927Z,10.92
2022-10-30T18:23:52.503Z,10.90
2022-10-30T18:26:23.434Z,10.89
2022-10-30T18:28:50.937Z,10.85
2022-10-30T18:31:21.324Z,10.78
2022-10-30T18:33:49.502Z,10.70
2022-10-30T18:36:22.075Z,10.72
2022-10-30T18:38:49.773Z,10.64
2022-10-30T18:41:36.111Z,10.56
2022-10-30T18:44:03.606Z,10.48
2022-10-30T18:46:32.265Z,10.46
2022-10-30T18:48:59.392Z,10.36
2022-10-30T18:51:28.432Z,10.35
2022-10-30T18:53:57.209Z,10.35
2022-10-30T18:56:28.947Z,10.29
2022-10-30T18:59:01.711Z,10.20
2022-10-30T19:01:32.910Z,10.15
2022-10-30T19:04:04.778Z,10.07
2022-10-30T19:06:34.700Z,10.07
2022-10-30T19:09:02.036Z,10.08
2022-10-30T19:11:31.396Z,10.05
2022-10-30T19:13:59.917Z,10.04
2022-10-30T19:16:26.890Z,10.05
2022-10-30T19:18:54.378Z,10.08
2022-10-30T19:21:25.304Z,9.98
2022-10-30T19:23:53.299Z,10.00
2022-10-30T19:26:20.280Z,9.89
2022-10-30T19:28:47.320Z,9.84
2022-10-30T19:31:15.964Z,9.81
2022-10-30T19:33:43.783Z,9.77
2022-10-30T19:36:34.145Z,9.77
2022-10-30T19:39:07.554Z,9.72
2022-10-30T19:41:35.716Z,9.72
2022-10-30T19:44:02.961Z,9.76
2022-10-30T19:46:30.035Z,9.72
2022-10-30T19:48:59.020Z,9.75
2022-10-30T19:51:27.735Z,9.73
2022-10-30T19:53:55.186Z,9.71
2022-10-30T19:56:23.031Z,9.70
2022-10-30T19:58:50.569Z,9.66
2022-10-30T20:01:17.997Z,9.64
2022-10-30T20:03:45.135Z,9.62
2022-10-30T20:06:13.239Z,9.58
2022-10-30T20:08:40.482Z,9.45
2022-10-30T20:11:08.027Z,9.40
2022-10-30T20:13:35.322Z,9.37
2022-10-30T20:16:05.545Z,9.30
2022-10-30T20:18:35.704Z,9.27
2022-10-30T20:21:06.505Z,9.24
2022-10-30T20:23:33.642Z,9.26
2022-10-30T20:26:03.412Z,9.25
2022-10-30T20:28:42.326Z,9.25
2022-10-30T20:31:12.599Z,9.28
2022-10-30T20:33:40.031Z,9.29
2022-10-30T20:36:07.584Z,9.26
2022-10-30T20:38:35.304Z,9.19
2022-10-30T20:41:05.066Z,9.22
2022-10-30T20:43:34.929Z,9.15
2022-10-30T20:46:03.731Z,9.10
2022-10-30T20:48:31.061Z,9.07
2022-10-30T20:51:00.161Z,9.09
2022-10-30T20:53:28.282Z,9.04
2022-10-30T20:55:55.057Z,9.03
2022-10-30T20:58:22.162Z,8.94
2022-10-30T21:00:49.581Z,8.89
2022-10-30T21:03:16.981Z,8.85
2022-10-30T21:05:46.160Z,8.83
2022-10-30T21:08:14.502Z,8.86
2022-10-30T21:10:42.589Z,8.79
2022-10-30T21:13:11.725Z,8.77
2022-10-30T21:15:40.680Z,8.78
2022-10-30T21:18:09.407Z,8.78
2022-10-30T21:20:38.059Z,8.79
2022-10-30T21:23:08.376Z,8.80
2022-10-30T21:25:36.103Z,8.79
2022-10-30T21:28:03.510Z,8.81
2022-10-30T21:30:31.438Z,8.86
2022-10-30T21:32:59.424Z,8.89
2022-10-30T21:35:27.995Z,8.85
2022-10-30T21:37:55.151Z,8.77
2022-10-30T21:40:22.597Z,8.77
2022-10-30T21:42:50.341Z,8.82
2022-10-30T21:45:17.652Z,8.80
2022-10-30T21:47:44.531Z,8.82
2022-10-30T21:50:12.928Z,8.87
2022-10-30T21:52:41.307Z,8.84
2022-10-30T21:55:08.765Z,8.87
2022-10-30T21:57:36.300Z,8.93
2022-10-30T22:00:06.204Z,8.95
2022-10-30T22:02:34.682Z,8.86
2022-10-30T22:05:01.752Z,8.81
2022-10-30T22:07:28.678Z,8.82
2022-10-30T22:09:55.901Z,8.85
2022-10-30T22:12:22.807Z,8.82
2022-10-30T22:14:49.926Z,8.86
2022-10-30T22:17:16.938Z,8.90
2022-10-30T22:19:43.854Z,8.90
2022-10-30T22:22:11.393Z,8.86
2022-10-30T22:24:38.554Z,8.83
2022-10-30T22:27:06.176Z,8.82
2022-10-30T22:29:33.184Z,8.74
2022-10-30T22:32:00.113Z,8.74
2022-10-30T22:34:27.181Z,8.66
2022-10-30T22:36:54.325Z,8.61
2022-10-30T22:39:21.528Z,8.59
2022-10-30T22:41:48.465Z,8.52
2022-10-30T22:44:19.897Z,8.53
2022-10-30T22:46:47.117Z,8.48
2022-10-30T22:49:14.142Z,8.44
2022-10-30T22:51:42.887Z,8.36
2022-10-30T22:54:13.337Z,8.30
2022-10-30T22:56:42.756Z,8.24
2022-10-30T22:59:14.151Z,8.28
2022-10-30T23:01:42.214Z,8.24
2022-10-30T23:04:11.590Z,8.18
2022-10-30T23:06:38.606Z,8.10
2022-10-30T23:09:08.556Z,8.00
2022-10-30T23:11:36.031Z,7.98
2022-10-30T23:14:03.100Z,7.98
2022-10-30T23:16:30.359Z,7.94
2022-10-30T23:18:59.337Z,7.72
2022-10-30T23:21:28.345Z,7.71
2022-10-30T23:23:56.128Z,7.72
2022-10-30T23:26:29.462Z,7.69
2022-10-30T23:28:57.506Z,7.68
2022-10-30T23:31:28.392Z,7.62
2022-10-30T23:33:58.304Z,7.59
2022-10-30T23:36:26.093Z,7.64
2022-10-30T23:38:54.414Z,7.62
2022-10-30T23:41:22.349Z,7.60
2022-10-30T23:43:53.896Z,7.56
2022-10-30T23:46:21.277Z,7.53
2022-10-30T23:48:48.325Z,7.56
2022-10-30T23:51:15.663Z,7.48
2022-10-30T23:53:42.770Z,7.49
2022-10-30T23:56:09.816Z,7.53
2022-10-30T23:58:36.903Z,7.52
